Forest fire From: 18-06-2018 11:00 Until: 19-06-2018 10:14 warning for: Forest fire Level: Yellow info button
suomi:
Metsäpalovaroitus on voimassa.

svenska:
Varning för skogsbrand gäller.

english:
A forest fire warning is in force. 


Thunder radar more information blitzortung!


Löydät sääaseman tiedot myös:

European Weather Network

Finland Weather Exchange

Weather Underground

AWEKAS



Weather Underground säähistoriasivu

Päivittäin yhteenveto Syyskuu 19, 2017 Yksiköt:  Englantilaiset    Metriset   Molemmat
« Edellinen Päivä
Seuraava Päivä »
Päivittäin Viikoittain Kuukausittain Vuosittain Mukautettu
  Korkea: Matala: Keskiarvo:
Lämpötila: TemperatureC °F 5.1 °F 6.5 °F
Kastepiste: DewpointC °F 3.5 °F 4.8 °F
Kosteus: Humidity % 80 % 88 %
Tuulen nopeus: WindSpeedKMH mph 0.0 mph 0.2 mph
Tuulenpuuska: WindSpeedGustKMH mph - -
Tuuli:- - SSW
Ilmanpaine: PressurehPa in 1006.3 in -
Sade: 0.3 in    
Historical Graphs
 
 
Taulukkotiedot Syyskuu 19, 2017
Aika Lämpötila Kastepiste Ilmanpaine Tuuli Tuulen nopeus Tuulenpuuska Kosteus Sademäärä (tunneittain)
TemperatureC °F DewpointC °F PressurehPa in Calm     Humidity % HourlyPrecipMM in
00:00 8.3 °F 7.7 °F 1006.3 in Calm   3.2 mph 96 % 0.0 in
00:15 8.2 °F 7.6 °F 1006.3 in Calm   3.2 mph 96 % 0.0 in
00:30 8.2 °F 7.6 °F 1006.3 in Calm   3.2 mph 96 % 0.0 in
00:45 8.1 °F 7.5 °F 1006.3 in Calm   4.8 mph 96 % 0.0 in
01:00 7.9 °F 7.3 °F 1006.3 in Calm   4.8 mph 96 % 0.0 in
01:15 7.7 °F 6.9 °F 1006.3 in Calm   6.4 mph 95 % 0.0 in
01:30 7.5 °F 6.8 °F 1006.3 in Calm   3.2 mph 95 % 0.0 in
01:45 7.4 °F 6.6 °F 1006.3 in Calm   6.4 mph 95 % 0.0 in
02:00 7.3 °F 6.6 °F 1006.3 in Calm   6.4 mph 95 % 0.0 in
02:15 7.3 °F 6.5 °F 1006.7 in Calm   6.4 mph 95 % 0.0 in
02:30 7.2 °F 6.5 °F 1006.7 in Calm   6.4 mph 95 % 0.0 in
02:45 7.2 °F 6.4 °F 1006.7 in Calm   6.4 mph 95 % 0.0 in
03:00 7.1 °F 6.3 °F 1006.3 in Calm   6.4 mph 95 % 0.0 in
03:15 7.1 °F 6.3 °F 1006.7 in Calm   6.4 mph 95 % 0.0 in
03:30 7.0 °F 6.3 °F 1006.7 in Calm   4.8 mph 95 % 0.0 in
03:45 6.9 °F 6.0 °F 1006.7 in NNW 1.6 mph 9.7 mph 94 % 0.0 in
04:00 6.9 °F 6.0 °F 1006.7 in NNE 1.6 mph 8.0 mph 94 % 0.0 in
04:15 6.8 °F 5.7 °F 1006.7 in NNE 1.6 mph 4.8 mph 93 % 0.0 in
04:30 6.7 °F 5.6 °F 1006.7 in Calm   3.2 mph 93 % 0.0 in
04:45 6.5 °F 5.3 °F 1006.7 in Calm   6.4 mph 92 % 0.0 in
05:00 6.4 °F 5.2 °F 1007.0 in Calm   4.8 mph 92 % 0.0 in
05:15 6.3 °F 5.1 °F 1007.0 in Calm   4.8 mph 92 % 0.0 in
05:30 6.2 °F 4.9 °F 1007.0 in Calm   4.8 mph 91 % 0.0 in
05:45 6.2 °F 5.0 °F 1007.0 in Calm   6.4 mph 92 % 0.0 in
06:00 6.1 °F 4.9 °F 1007.0 in Calm   8.0 mph 92 % 0.0 in
06:15 6.1 °F 4.9 °F 1007.0 in Calm   4.8 mph 92 % 0.0 in
06:30 6.1 °F 4.9 °F 1007.3 in Calm   4.8 mph 92 % 0.0 in
06:45 5.9 °F 4.7 °F 1007.3 in North 1.6 mph 4.8 mph 92 % 0.0 in
07:00 5.8 °F 4.6 °F 1007.3 in North 1.6 mph 8.0 mph 92 % 0.0 in
07:15 5.7 °F 4.3 °F 1007.3 in Calm   4.8 mph 91 % 0.0 in
07:30 5.6 °F 4.2 °F 1007.3 in Calm   4.8 mph 91 % 0.0 in
07:45 5.5 °F 4.1 °F 1007.7 in NNE 1.6 mph 9.7 mph 91 % 0.0 in
08:00 5.4 °F 3.9 °F 1007.7 in North 1.6 mph 6.4 mph 90 % 0.0 in
08:15 5.3 °F 4.0 °F 1008.0 in North 1.6 mph 8.0 mph 91 % 0.0 in
08:30 5.2 °F 3.9 °F 1008.0 in Calm   9.7 mph 91 % 0.0 in
08:45 5.2 °F 4.0 °F 1008.0 in Calm   4.8 mph 92 % 0.0 in
09:00 5.1 °F 3.9 °F 1008.0 in Calm   8.0 mph 92 % 0.0 in
09:15 5.1 °F 3.9 °F 1008.0 in Calm   3.2 mph 92 % 0.0 in
09:30 5.2 °F 4.0 °F 1008.4 in Calm   8.0 mph 92 % 0.0 in
09:45 5.3 °F 3.9 °F 1008.4 in Calm   6.4 mph 91 % 0.0 in
10:00 5.3 °F 4.0 °F 1008.4 in Calm   3.2 mph 91 % 0.0 in
10:15 5.5 °F 4.1 °F 1008.4 in Calm   6.4 mph 91 % 0.0 in
10:30 5.6 °F 4.0 °F 1008.4 in Calm   8.0 mph 90 % 0.0 in
10:45 5.6 °F 3.9 °F 1008.7 in Calm   3.2 mph 89 % 0.0 in
11:00 5.6 °F 3.9 °F 1008.7 in Calm   3.2 mph 89 % 0.0 in
11:15 5.6 °F 3.8 °F 1008.7 in NNW 1.6 mph 8.0 mph 88 % 0.0 in
11:30 5.7 °F 4.0 °F 1008.7 in Calm   12.9 mph 89 % 0.0 in
11:45 5.8 °F 3.8 °F 1009.0 in Calm   8.0 mph 87 % 0.0 in
12:00 5.8 °F 3.8 °F 1009.0 in Calm   4.8 mph 87 % 0.0 in
12:15 6.1 °F 3.9 °F 1009.0 in NNW 1.6 mph 8.0 mph 86 % 0.0 in
12:30 6.2 °F 3.5 °F 1009.0 in NNW 1.6 mph 6.4 mph 83 % 0.0 in
12:45 6.2 °F 3.7 °F 1009.0 in Calm   6.4 mph 84 % 0.0 in
13:00 6.4 °F 3.9 °F 1009.0 in Calm   4.8 mph 84 % 0.0 in
13:15 6.7 °F 4.0 °F 1009.0 in Calm   3.2 mph 83 % 0.0 in
13:30 6.8 °F 3.7 °F 1009.4 in Calm   4.8 mph 81 % 0.0 in
13:45 7.0 °F 4.3 °F 1009.4 in Calm   1.6 mph 83 % 0.0 in
14:00 7.6 °F 4.5 °F 1009.4 in Calm   3.2 mph 81 % 0.0 in
14:15 7.5 °F 4.4 °F 1009.4 in Calm   12.9 mph 81 % 0.0 in
14:30 7.3 °F 4.3 °F 1009.7 in Calm   6.4 mph 81 % 0.0 in
14:45 7.3 °F 4.3 °F 1009.7 in Calm   3.2 mph 81 % 0.0 in
15:00 7.3 °F 4.2 °F 1009.7 in Calm   1.6 mph 81 % 0.0 in
15:15 7.4 °F 4.2 °F 1010.0 in Calm   1.6 mph 80 % 0.0 in
15:30 7.6 °F 4.3 °F 1010.0 in Calm   3.2 mph 80 % 0.0 in
15:45 7.6 °F 4.3 °F 1010.0 in Calm   3.2 mph 80 % 0.0 in
16:00 7.4 °F 4.4 °F 1010.4 in Calm     81 % 0.0 in
16:15 7.3 °F 4.1 °F 1010.4 in Calm   6.4 mph 80 % 0.0 in
16:45 7.0 °F 3.8 °F 1010.7 in Calm   8.0 mph 80 % 0.0 in
17:00 6.9 °F 3.9 °F 1010.7 in Calm   1.6 mph 81 % 0.0 in
17:15 6.9 °F 4.3 °F 1010.7 in Calm   1.6 mph 83 % 0.0 in
17:30 6.9 °F 3.9 °F 1010.7 in Calm   3.2 mph 81 % 0.0 in
17:45 7.0 °F 4.3 °F 1011.1 in Calm     83 % 0.0 in
18:00 7.1 °F 4.4 °F 1011.1 in Calm     83 % 0.0 in
18:15 7.1 °F 4.4 °F 1011.4 in Calm   1.6 mph 83 % 0.0 in
18:30 7.1 °F 4.5 °F 1011.4 in Calm     84 % 0.0 in
18:45 7.1 °F 4.5 °F 1011.4 in Calm   3.2 mph 84 % 0.0 in
19:00 7.1 °F 4.7 °F 1011.4 in Calm     85 % 0.0 in
19:15 7.0 °F 4.6 °F 1011.7 in Calm     85 % 0.0 in
19:30 6.9 °F 4.7 °F 1011.7 in Calm     86 % 0.0 in
19:45 6.8 °F 4.8 °F 1011.7 in Calm     87 % 0.0 in
20:00 6.7 °F 4.7 °F 1012.1 in Calm     87 % 0.0 in
20:15 6.6 °F 4.8 °F 1012.1 in Calm     88 % 0.0 in
20:30 6.5 °F 4.7 °F 1012.1 in Calm     88 % 0.0 in
20:45 6.5 °F 4.7 °F 1012.4 in Calm     88 % 0.0 in
21:00 6.4 °F 4.8 °F 1012.8 in Calm   1.6 mph 89 % 0.0 in
21:15 6.6 °F 5.0 °F 1012.8 in Calm   3.2 mph 90 % 0.0 in
21:30 6.5 °F 5.0 °F 1013.1 in Calm     90 % 0.0 in
21:45 6.4 °F 5.1 °F 1013.1 in Calm     91 % 0.0 in
22:00 6.4 °F 5.2 °F 1013.1 in Calm     92 % 0.0 in
22:15 6.3 °F 5.3 °F 1013.1 in Calm     93 % 0.0 in
22:30 6.3 °F 5.4 °F 1013.4 in Calm     94 % 0.0 in
22:45 6.2 °F 5.3 °F 1013.4 in Calm     94 % 0.0 in
23:00 6.1 °F 5.4 °F 1013.4 in Calm     95 % 0.0 in
23:15 6.1 °F 5.5 °F 1013.4 in Calm     96 % 0.3 in
23:30 6.2 °F 5.6 °F 1013.4 in Calm     96 % 0.3 in
23:45 6.2 °F 5.6 °F 1013.4 in Calm   1.6 mph 96 % 0.3 in
Esan sääasema
Terveisin Weather Underground - 2.75 mb

Alkuperäinen skripti  Jim McMurry - jmcmurry@mwt.net Sovitettu myös templatelle  Wim van der Kuil - Leuven-Template.eu

Laitteet joita käytämme:

Sääasema
Davis VP2

Sääasemaohjelma
Cumulus

Sääaseman tietokone
Asus EeePC

Palveluntarjoaja
Suncomet

Davis VP2

Cumulus

Asus EeePC

Suncomet